Time;durP1;ratioP1;P1;durP2;ratioP2;P2;SDS_P1;SDS_P2;PMS_P1;PMS_P2;Temp;Humidity;BMP_temperature;BMP_pressure;BME280_temperature;BME280_humidity;BME280_pressure;Samples;Min_cycle;Max_cycle;Signal;HPM_P1;HPM_P2
2021/12/20 00:00:15;;;;;;;45.53;9.20;;;7.80;99.90;;;;;;5056386;28;20228;-71
2021/12/20 00:02:44;;;;;;;48.67;9.83;;;7.80;99.90;;;;;;5056128;28;20278;-70
2021/12/20 00:05:12;;;;;;;55.67;9.93;;;7.80;99.90;;;;;;5055439;28;20211;-70
2021/12/20 00:07:39;;;;;;;54.60;10.93;;;7.80;99.90;;;;;;5056016;28;20278;-71
2021/12/20 00:10:08;;;;;;;52.37;9.83;;;7.80;99.90;;;;;;5033939;28;20238;-71
2021/12/20 00:12:35;;;;;;;52.40;10.00;;;7.80;99.90;;;;;;5055641;28;20921;-68
2021/12/20 00:15:02;;;;;;;50.40;10.23;;;7.70;99.90;;;;;;5054969;28;20223;-69
2021/12/20 00:17:28;;;;;;;49.23;9.83;;;7.70;99.90;;;;;;5055462;28;20316;-69
2021/12/20 00:19:55;;;;;;;49.70;9.93;;;7.70;99.90;;;;;;5037344;28;20228;-68
2021/12/20 00:22:22;;;;;;;50.93;10.07;;;7.70;99.90;;;;;;5055329;28;20596;-68
2021/12/20 00:24:49;;;;;;;42.60;9.47;;;7.70;99.90;;;;;;5054970;28;20208;-69
2021/12/20 00:27:19;;;;;;;45.50;9.70;;;7.70;99.90;;;;;;5055706;28;20265;-69
2021/12/20 00:29:46;;;;;;;56.37;10.13;;;7.70;99.90;;;;;;5037489;28;20717;-69
2021/12/20 00:32:14;;;;;;;46.70;9.47;;;7.70;99.90;;;;;;5054807;28;20286;-69
2021/12/20 00:34:41;;;;;;;52.37;10.00;;;7.70;99.90;;;;;;5055232;28;20337;-68
2021/12/20 00:40:20;;;;;;;47.87;9.33;;;7.70;99.90;;;;;;5042270;28;20236;-69
2021/12/20 00:42:41;;;;;;;56.60;10.67;;;7.70;99.90;;;;;;5058158;28;20212;-71
2021/12/20 00:45:09;;;;;;;51.27;9.30;;;7.70;99.90;;;;;;5059594;28;20208;-70
2021/12/20 00:47:36;;;;;;;47.63;10.17;;;7.80;99.90;;;;;;5041685;28;20216;-71
2021/12/20 00:50:05;;;;;;;52.40;10.27;;;7.80;99.90;;;;;;5058624;28;20233;-71
2021/12/20 00:52:32;;;;;;;49.80;9.63;;;7.80;99.90;;;;;;5058446;28;20235;-71
2021/12/20 00:54:59;;;;;;;51.30;9.73;;;7.80;99.90;;;;;;5058107;28;20212;-71
2021/12/20 00:57:26;;;;;;;52.27;9.93;;;7.80;99.90;;;;;;5058504;28;20706;-71
2021/12/20 00:59:54;;;;;;;59.50;10.67;;;7.70;99.90;;;;;;5057476;28;20208;-71
2021/12/20 01:02:21;;;;;;;47.83;9.53;;;7.70;99.90;;;;;;5058422;28;20204;-71
2021/12/20 01:04:48;;;;;;;50.77;8.80;;;7.80;99.90;;;;;;5058760;28;20221;-71
2021/12/20 01:07:14;;;;;;;47.70;8.03;;;7.80;99.90;;;;;;5059601;28;20256;-70
2021/12/20 01:09:41;;;;;;;51.30;9.20;;;7.70;99.90;;;;;;5036545;28;20227;-71
2021/12/20 01:12:15;;;;;;;46.90;9.27;;;7.70;99.90;;;;;;5058132;28;20247;-70
2021/12/20 01:14:43;;;;;;;49.50;9.43;;;7.70;99.90;;;;;;5059253;28;20304;-70
2021/12/20 01:17:11;;;;;;;43.80;8.77;;;7.70;99.90;;;;;;5058368;28;20217;-71
2021/12/20 01:19:39;;;;;;;50.43;9.80;;;7.60;99.90;;;;;;5058255;28;21235;-71
2021/12/20 01:22:07;;;;;;;55.37;10.30;;;7.60;99.90;;;;;;5058105;28;20689;-71
2021/12/20 01:24:34;;;;;;;52.50;9.63;;;7.60;99.90;;;;;;5059057;28;20208;-71
2021/12/20 01:27:01;;;;;;;36.30;7.67;;;7.60;99.90;;;;;;5058337;28;20264;-71
2021/12/20 01:29:28;;;;;;;38.23;8.17;;;7.60;99.90;;;;;;5057339;28;20216;-71
2021/12/20 01:31:55;;;;;;;63.70;11.40;;;7.60;99.90;;;;;;5057873;28;20268;-70
2021/12/20 01:34:23;;;;;;;52.13;9.33;;;7.60;99.90;;;;;;5057544;28;20708;-71
2021/12/20 01:36:50;;;;;;;49.57;9.30;;;7.60;99.90;;;;;;5058847;28;20288;-71
2021/12/20 01:39:17;;;;;;;48.53;9.37;;;7.60;99.90;;;;;;5058313;28;20221;-71
2021/12/20 01:41:46;;;;;;;57.30;9.40;;;7.60;99.90;;;;;;5058050;28;20241;-71
2021/12/20 01:44:14;;;;;;;44.77;8.90;;;7.60;99.90;;;;;;5037170;28;20288;-71
2021/12/20 01:46:41;;;;;;;49.10;9.37;;;7.60;99.90;;;;;;5056843;28;20725;-71
2021/12/20 01:49:11;;;;;;;59.47;10.80;;;7.60;99.90;;;;;;5056148;28;20571;-70
2021/12/20 01:52:00;;;;;;;50.60;9.80;;;7.50;99.90;;;;;;5057457;28;20258;-71
2021/12/20 01:54:27;;;;;;;51.47;9.40;;;7.50;99.90;;;;;;5057818;28;20208;-71
2021/12/20 01:56:54;;;;;;;48.00;9.63;;;7.50;99.90;;;;;;5036048;28;20566;-71
2021/12/20 01:59:21;;;;;;;52.03;9.23;;;7.50;99.90;;;;;;5057670;28;20215;-71
2021/12/20 02:01:48;;;;;;;50.83;9.43;;;7.50;99.90;;;;;;5057792;28;20233;-70
2021/12/20 02:04:15;;;;;;;51.80;9.63;;;7.50;99.90;;;;;;5058530;28;20630;-70
2021/12/20 02:06:47;;;;;;;48.60;8.53;;;7.50;99.90;;;;;;5057222;28;20216;-71
2021/12/20 02:09:16;;;;;;;49.90;9.43;;;7.40;99.90;;;;;;5057559;28;20217;-71
2021/12/20 02:11:46;;;;;;;52.13;9.83;;;7.40;99.90;;;;;;5057852;28;20248;-71
2021/12/20 02:14:14;;;;;;;46.80;9.03;;;7.40;99.90;;;;;;5056005;28;20213;-71
2021/12/20 02:16:45;;;;;;;46.07;9.40;;;7.40;99.90;;;;;;5057198;28;20799;-71
2021/12/20 02:19:15;;;;;;;66.13;10.87;;;7.40;99.90;;;;;;5054096;28;20711;-71
2021/12/20 02:21:45;;;;;;;56.90;10.80;;;7.40;99.90;;;;;;5039973;28;21270;-70
2021/12/20 02:24:12;;;;;;;65.47;10.57;;;7.40;99.90;;;;;;5056742;28;20697;-71
2021/12/20 02:26:39;;;;;;;51.57;8.63;;;8.50;99.90;;;;;;5056862;28;20690;-70
2021/12/20 02:29:08;;;;;;;52.70;9.20;;;7.30;99.90;;;;;;5056807;28;20228;-71
2021/12/20 02:37:21;;;;;;;52.77;8.97;;;7.30;99.90;;;;;;5056571;28;20232;-70
2021/12/20 02:39:48;;;;;;;52.60;8.93;;;7.30;99.90;;;;;;5040082;28;20224;-70
2021/12/20 02:42:20;;;;;;;58.60;9.90;;;7.30;99.90;;;;;;5056609;28;20212;-70
2021/12/20 02:44:52;;;;;;;44.63;7.47;;;7.30;99.90;;;;;;5057200;28;20216;-70
2021/12/20 02:47:28;;;;;;;55.83;8.57;;;7.30;99.90;;;;;;5057025;28;20212;-70
2021/12/20 02:49:56;;;;;;;56.20;9.93;;;7.30;99.90;;;;;;5057526;28;20282;-70
2021/12/20 02:52:25;;;;;;;52.70;8.20;;;7.30;99.90;;;;;;5056755;28;20241;-70
2021/12/20 02:54:52;;;;;;;53.87;9.20;;;7.20;99.90;;;;;;5056968;28;20776;-70
2021/12/20 02:57:20;;;;;;;51.20;9.23;;;7.30;99.90;;;;;;5056495;28;20212;-70
2021/12/20 02:59:47;;;;;;;49.60;8.00;;;7.20;99.90;;;;;;5056509;28;20236;-70
2021/12/20 03:02:15;;;;;;;55.37;8.83;;;7.20;99.90;;;;;;5039662;28;20215;-70
2021/12/20 03:04:42;;;;;;;47.47;8.87;;;7.20;99.90;;;;;;5057570;28;20461;-71
2021/12/20 03:07:17;;;;;;;58.60;9.47;;;7.20;99.90;;;;;;5056614;28;20523;-70
2021/12/20 03:09:50;;;;;;;54.80;9.70;;;7.20;99.90;;;;;;5056198;28;20212;-71
2021/12/20 03:12:18;;;;;;;46.60;8.07;;;7.20;99.90;;;;;;5034931;28;20753;-70
2021/12/20 03:14:48;;;;;;;49.87;8.20;;;7.20;99.90;;;;;;5056798;28;20215;-70
2021/12/20 03:17:15;;;;;;;57.80;9.57;;;7.20;99.90;;;;;;5055461;28;20272;-70
2021/12/20 03:19:42;;;;;;;58.00;9.93;;;7.20;99.90;;;;;;5055580;28;20220;-70
2021/12/20 03:22:09;;;;;;;52.50;8.90;;;7.20;99.90;;;;;;5056153;28;21100;-71
2021/12/20 03:24:36;;;;;;;54.17;9.07;;;7.20;99.90;;;;;;5035656;28;20213;-70
2021/12/20 03:27:05;;;;;;;50.17;8.80;;;7.30;99.90;;;;;;5060379;28;20216;-70
2021/12/20 03:29:32;;;;;;;54.50;9.20;;;7.30;99.90;;;;;;5058233;28;20216;-70
2021/12/20 03:31:59;;;;;;;57.10;9.73;;;7.30;99.90;;;;;;5055138;28;20613;-70
2021/12/20 03:34:26;;;;;;;51.57;8.90;;;7.30;99.90;;;;;;5055186;28;20728;-70
2021/12/20 03:36:53;;;;;;;54.80;8.50;;;7.30;99.90;;;;;;5055280;28;20222;-70
2021/12/20 03:39:20;;;;;;;53.47;8.43;;;7.30;99.90;;;;;;5055612;28;20843;-70
2021/12/20 03:41:47;;;;;;;47.10;8.53;;;6.30;99.90;;;;;;5055197;28;20234;-70
2021/12/20 03:44:16;;;;;;;57.90;9.00;;;7.30;99.90;;;;;;5037183;28;20214;-70
2021/12/20 03:46:43;;;;;;;52.80;9.00;;;7.30;99.90;;;;;;5055338;28;20708;-70
2021/12/20 03:49:10;;;;;;;62.63;10.50;;;7.30;99.90;;;;;;5033421;28;20214;-70
2021/12/20 03:51:37;;;;;;;57.63;9.87;;;7.30;99.90;;;;;;5055437;28;20239;-70
2021/12/20 03:54:05;;;;;;;51.50;9.23;;;7.30;99.90;;;;;;5054743;28;20700;-70
2021/12/20 03:56:33;;;;;;;53.80;9.47;;;7.20;99.90;;;;;;5055186;28;20592;-70
2021/12/20 03:59:00;;;;;;;55.77;9.57;;;7.20;99.90;;;;;;5055624;28;20209;-70
2021/12/20 04:01:28;;;;;;;36.60;6.73;;;7.30;99.90;;;;;;5055274;28;20780;-70
2021/12/20 04:03:57;;;;;;;55.57;9.00;;;7.30;99.90;;;;;;5054905;28;20211;-71
2021/12/20 04:06:24;;;;;;;47.90;8.90;;;7.30;99.90;;;;;;5032663;28;20220;-70
2021/12/20 04:08:51;;;;;;;52.57;9.07;;;7.30;99.90;;;;;;5055663;28;20216;-70
2021/12/20 04:11:18;;;;;;;50.80;8.57;;;7.30;99.90;;;;;;5054354;28;20235;-70
2021/12/20 04:13:45;;;;;;;48.77;9.27;;;7.30;99.90;;;;;;5054160;28;20216;-70
2021/12/20 04:16:12;;;;;;;46.47;7.80;;;7.20;99.90;;;;;;5059852;28;20205;-70
2021/12/20 04:18:40;;;;;;;35.60;5.87;;;7.30;99.90;;;;;;5056814;28;20212;-70
2021/12/20 04:21:08;;;;;;;58.90;9.83;;;7.30;99.90;;;;;;5054343;28;20232;-70
2021/12/20 04:23:35;;;;;;;55.77;9.53;;;7.30;99.90;;;;;;5055268;28;20676;-70
2021/12/20 04:26:02;;;;;;;58.70;10.57;;;7.30;99.90;;;;;;5055771;28;20594;-70
2021/12/20 04:28:29;;;;;;;48.57;8.57;;;7.30;99.90;;;;;;5037063;28;20216;-70
2021/12/20 04:30:56;;;;;;;49.20;8.37;;;7.30;99.90;;;;;;5055078;28;20236;-70
2021/12/20 04:33:23;;;;;;;56.93;9.40;;;7.20;99.90;;;;;;5055510;28;20236;-70
2021/12/20 04:35:51;;;;;;;57.33;9.70;;;7.20;99.90;;;;;;5055081;28;20208;-70
2021/12/20 04:38:19;;;;;;;50.77;9.27;;;7.20;99.90;;;;;;5055090;28;20216;-70
2021/12/20 04:40:46;;;;;;;48.37;9.07;;;7.20;99.90;;;;;;5055094;28;20245;-70
2021/12/20 04:43:13;;;;;;;55.23;9.00;;;7.20;99.90;;;;;;5036792;28;20210;-70
2021/12/20 04:45:40;;;;;;;46.73;7.67;;;7.20;99.90;;;;;;5055648;28;20208;-71
2021/12/20 04:48:07;;;;;;;62.00;9.50;;;7.20;99.90;;;;;;5053150;28;20507;-69
2021/12/20 04:50:34;;;;;;;63.07;10.77;;;7.20;99.90;;;;;;5055085;28;20230;-69
2021/12/20 04:53:03;;;;;;;62.97;11.07;;;7.10;99.90;;;;;;5054678;28;20767;-69
2021/12/20 04:55:30;;;;;;;50.83;8.77;;;7.20;99.90;;;;;;5055132;28;20243;-69
2021/12/20 04:57:58;;;;;;;48.00;8.53;;;7.20;99.90;;;;;;5055518;28;20212;-69
2021/12/20 05:00:27;;;;;;;50.83;9.30;;;7.20;99.90;;;;;;5054571;28;20240;-69
2021/12/20 05:02:54;;;;;;;52.47;9.30;;;7.10;99.90;;;;;;5057218;28;20690;-69
2021/12/20 05:05:22;;;;;;;56.33;9.83;;;7.10;99.90;;;;;;5066478;28;20339;-69
2021/12/20 05:07:49;;;;;;;47.67;8.60;;;7.10;99.90;;;;;;5058415;28;20217;-68
2021/12/20 05:10:26;;;;;;;43.03;7.53;;;5.40;99.90;;;;;;5056787;28;20315;-68
2021/12/20 05:12:54;;;;;;;57.47;10.40;;;7.00;99.90;;;;;;5059058;28;20323;-68
2021/12/20 05:15:21;;;;;;;44.47;8.23;;;7.00;99.90;;;;;;5059558;28;20539;-71
2021/12/20 05:17:48;;;;;;;49.63;8.67;;;6.90;99.90;;;;;;5055602;28;20948;-69
2021/12/20 05:20:15;;;;;;;78.60;13.40;;;6.90;99.90;;;;;;5051230;28;20236;-69
2021/12/20 05:22:42;;;;;;;51.97;8.87;;;6.90;99.90;;;;;;5052725;28;20204;-69
2021/12/20 05:25:10;;;;;;;51.47;9.17;;;6.90;99.90;;;;;;5051579;28;20213;-69
2021/12/20 05:27:39;;;;;;;62.47;9.33;;;7.00;99.90;;;;;;5057648;28;20524;-69
2021/12/20 05:30:08;;;;;;;57.07;9.87;;;7.00;99.90;;;;;;5067287;28;20233;-69
2021/12/20 05:32:35;;;;;;;57.50;9.50;;;8.20;99.90;;;;;;5077589;28;20247;-69
2021/12/20 05:35:05;;;;;;;50.60;9.23;;;7.10;99.90;;;;;;5051634;28;20291;-69
2021/12/20 05:37:32;;;;;;;52.43;8.83;;;7.00;99.90;;;;;;5072263;28;20209;-68
2021/12/20 05:39:58;;;;;;;53.47;8.87;;;7.10;99.90;;;;;;5066046;28;20243;-69
2021/12/20 05:42:25;;;;;;;58.00;9.47;;;7.00;99.90;;;;;;5052281;28;20614;-69
2021/12/20 05:44:54;;;;;;;52.97;8.50;;;7.00;99.90;;;;;;5073483;28;20223;-69
2021/12/20 05:47:23;;;;;;;50.70;8.40;;;7.00;99.90;;;;;;5065811;28;20698;-68
2021/12/20 05:49:50;;;;;;;61.37;9.50;;;7.00;99.90;;;;;;5071902;28;20243;-69
2021/12/20 05:52:17;;;;;;;59.73;9.83;;;7.00;99.90;;;;;;5070546;28;20231;-68
2021/12/20 05:54:45;;;;;;;56.53;9.73;;;7.00;99.90;;;;;;5072007;28;20693;-69
2021/12/20 05:57:12;;;;;;;64.90;10.17;;;7.00;99.90;;;;;;5061647;28;20732;-69
2021/12/20 05:59:39;;;;;;;59.43;9.77;;;6.90;99.90;;;;;;5060074;28;20595;-69
2021/12/20 06:02:07;;;;;;;53.33;8.70;;;6.90;99.90;;;;;;5063892;28;20998;-69
2021/12/20 06:04:34;;;;;;;60.77;9.83;;;6.90;99.90;;;;;;5069953;28;20223;-69
2021/12/20 06:07:01;;;;;;;57.27;9.93;;;6.90;99.90;;;;;;5077218;28;20681;-69
2021/12/20 06:09:28;;;;;;;63.73;11.27;;;6.90;99.90;;;;;;5080085;28;20279;-70
2021/12/20 06:11:59;;;;;;;46.23;8.00;;;6.90;99.90;;;;;;5069044;28;20581;-69
2021/12/20 06:14:27;;;;;;;54.70;9.27;;;6.90;99.90;;;;;;5077830;28;20201;-69
2021/12/20 06:16:55;;;;;;;56.47;9.67;;;6.90;99.90;;;;;;5069382;28;20279;-69
2021/12/20 06:19:24;;;;;;;54.93;9.00;;;6.80;99.90;;;;;;5077649;28;20204;-69
2021/12/20 06:21:51;;;;;;;58.47;9.40;;;6.80;99.90;;;;;;5072856;28;20281;-68
2021/12/20 06:24:19;;;;;;;48.30;8.20;;;6.80;99.90;;;;;;5079463;28;20292;-69
2021/12/20 06:26:46;;;;;;;48.53;8.27;;;6.70;99.90;;;;;;5074876;28;20260;-69
2021/12/20 06:29:13;;;;;;;56.57;8.93;;;7.40;99.90;;;;;;5076663;28;20211;-69
2021/12/20 06:31:40;;;;;;;60.77;9.77;;;6.70;99.90;;;;;;5074191;28;20228;-69
2021/12/20 06:34:06;;;;;;;58.97;9.37;;;6.60;99.90;;;;;;5063972;28;23161;-68
2021/12/20 06:36:35;;;;;;;53.50;8.83;;;6.50;99.90;;;;;;5072137;28;20689;-68
2021/12/20 06:39:02;;;;;;;51.23;8.83;;;6.50;99.90;;;;;;5047417;28;20212;-68
2021/12/20 06:41:29;;;;;;;56.53;9.33;;;6.30;99.90;;;;;;5064773;28;20237;-68
2021/12/20 06:43:56;;;;;;;52.23;9.00;;;6.30;99.90;;;;;;5064230;28;20205;-68
2021/12/20 06:46:26;;;;;;;52.83;9.13;;;6.20;99.90;;;;;;5077966;28;20663;-68
2021/12/20 06:48:53;;;;;;;52.53;8.83;;;6.10;99.90;;;;;;5065851;28;20208;-68
2021/12/20 06:51:19;;;;;;;59.83;10.13;;;6.00;99.90;;;;;;5070191;28;20232;-68
2021/12/20 06:53:48;;;;;;;69.37;10.23;;;5.90;99.90;;;;;;5055076;28;20231;-68
2021/12/20 06:56:14;;;;;;;65.37;10.57;;;5.80;99.90;;;;;;5051863;28;20227;-68
2021/12/20 06:58:41;;;;;;;64.33;9.73;;;5.70;99.90;;;;;;5061601;28;20215;-68
2021/12/20 07:01:08;;;;;;;57.93;10.30;;;5.60;99.90;;;;;;5053278;28;20276;-68
2021/12/20 07:03:35;;;;;;;57.30;9.50;;;5.50;99.90;;;;;;5062749;28;20789;-68
2021/12/20 07:06:02;;;;;;;51.67;8.97;;;5.50;99.90;;;;;;5074796;28;20425;-68
2021/12/20 07:08:29;;;;;;;61.60;9.93;;;5.30;99.90;;;;;;5072645;28;20215;-68
2021/12/20 07:10:57;;;;;;;56.77;9.60;;;4.60;99.90;;;;;;5078323;28;20232;-68
2021/12/20 07:13:24;;;;;;;59.33;9.27;;;5.20;99.90;;;;;;5079446;28;20551;-68
2021/12/20 07:15:51;;;;;;;58.80;9.13;;;5.10;99.90;;;;;;5067723;28;20204;-68
2021/12/20 07:18:18;;;;;;;52.83;8.73;;;5.00;99.90;;;;;;5071266;28;20220;-68
2021/12/20 07:20:45;;;;;;;63.27;10.33;;;4.80;99.90;;;;;;5080746;28;20215;-68
2021/12/20 07:23:11;;;;;;;65.70;10.00;;;4.80;99.90;;;;;;5067369;28;20215;-68
2021/12/20 07:25:38;;;;;;;65.13;10.27;;;3.30;99.90;;;;;;5071547;28;20804;-68
2021/12/20 07:28:08;;;;;;;66.97;10.93;;;4.60;99.90;;;;;;5051953;28;20667;-68
2021/12/20 07:30:35;;;;;;;64.63;10.27;;;4.50;99.90;;;;;;5066878;28;20220;-68
2021/12/20 07:33:02;;;;;;;71.33;10.43;;;4.50;99.90;;;;;;5077552;28;20814;-68
2021/12/20 07:35:29;;;;;;;58.30;9.87;;;4.40;99.90;;;;;;5069374;28;20216;-68
2021/12/20 07:37:58;;;;;;;60.40;10.17;;;4.40;99.90;;;;;;5066258;28;20322;-68
2021/12/20 07:40:25;;;;;;;56.27;9.53;;;4.30;99.90;;;;;;5067052;28;20335;-68
2021/12/20 07:42:52;;;;;;;66.37;10.00;;;4.20;99.90;;;;;;5054851;28;20208;-68
2021/12/20 07:45:21;;;;;;;58.37;8.97;;;3.70;99.90;;;;;;5056877;28;20691;-68
2021/12/20 07:47:49;;;;;;;64.47;9.70;;;4.10;99.90;;;;;;5079238;28;20686;-68
2021/12/20 07:50:16;;;;;;;58.17;9.07;;;4.10;99.90;;;;;;5049040;28;20272;-68
2021/12/20 07:52:43;;;;;;;69.77;10.57;;;4.00;99.90;;;;;;5053503;28;20216;-68
2021/12/20 07:55:11;;;;;;;59.73;11.17;;;4.00;99.90;;;;;;5052618;28;20562;-69
2021/12/20 07:57:38;;;;;;;69.83;11.17;;;4.00;99.90;;;;;;5071447;28;20800;-68
2021/12/20 08:00:07;;;;;;;66.67;11.10;;;3.90;99.90;;;;;;5058625;28;20225;-68
2021/12/20 08:02:41;;;;;;;59.13;10.07;;;3.90;99.90;;;;;;5075122;28;20219;-68
2021/12/20 08:05:09;;;;;;;60.43;10.10;;;3.90;99.90;;;;;;5074233;28;20213;-68
2021/12/20 08:07:36;;;;;;;53.87;9.40;;;3.90;99.90;;;;;;5060380;28;20319;-68
2021/12/20 08:10:05;;;;;;;62.43;10.43;;;3.90;99.90;;;;;;5072368;28;20228;-68
2021/12/20 08:12:31;;;;;;;54.07;8.43;;;3.90;99.90;;;;;;5063241;28;20209;-68
2021/12/20 08:14:58;;;;;;;52.23;9.47;;;3.90;99.90;;;;;;5068070;28;20208;-68
2021/12/20 08:17:25;;;;;;;52.73;9.17;;;4.00;99.90;;;;;;5085519;22;20272;-69
2021/12/20 08:19:54;;;;;;;60.93;8.80;;;4.10;99.90;;;;;;5071765;28;20298;-69
2021/12/20 08:22:24;;;;;;;59.77;9.73;;;4.20;99.90;;;;;;5071774;28;20219;-69
2021/12/20 08:24:51;;;;;;;58.97;9.73;;;4.30;99.90;;;;;;5073185;28;20200;-69
2021/12/20 08:27:18;;;;;;;46.60;8.63;;;4.30;99.90;;;;;;5056789;28;20240;-69
2021/12/20 08:29:45;;;;;;;57.37;9.87;;;4.40;99.90;;;;;;5037797;28;20221;-70
2021/12/20 08:32:12;;;;;;;52.60;9.03;;;4.50;99.90;;;;;;5033113;28;20679;-70
2021/12/20 08:34:39;;;;;;;52.33;9.43;;;4.60;99.90;;;;;;5044807;28;20228;-70
2021/12/20 08:37:07;;;;;;;47.30;8.60;;;4.70;99.90;;;;;;5053567;28;20224;-70
2021/12/20 08:39:34;;;;;;;52.07;9.37;;;4.70;99.90;;;;;;5052708;28;20216;-70
2021/12/20 08:42:03;;;;;;;49.13;8.83;;;4.70;99.90;;;;;;5049503;28;20737;-69
2021/12/20 08:44:30;;;;;;;54.37;9.70;;;4.80;99.90;;;;;;5054164;28;20197;-69
2021/12/20 08:46:58;;;;;;;44.17;8.67;;;4.80;99.90;;;;;;5056735;28;20358;-69
2021/12/20 08:49:26;;;;;;;62.47;9.23;;;4.80;99.90;;;;;;5054276;28;20743;-69
2021/12/20 08:51:54;;;;;;;50.90;8.73;;;4.80;99.90;;;;;;5057708;28;20208;-69
2021/12/20 08:54:24;;;;;;;51.83;9.30;;;4.70;99.90;;;;;;5071893;28;20232;-69
2021/12/20 08:56:52;;;;;;;56.97;11.13;;;4.80;99.90;;;;;;5067112;28;20232;-70
2021/12/20 08:59:19;;;;;;;59.23;10.07;;;4.70;99.90;;;;;;5068461;28;20211;-70
2021/12/20 09:01:46;;;;;;;61.17;11.43;;;4.80;99.90;;;;;;5076410;28;20888;-70
2021/12/20 09:04:13;;;;;;;50.60;8.10;;;4.90;99.90;;;;;;5078808;28;20204;-70
2021/12/20 09:06:42;;;;;;;57.17;9.27;;;5.00;99.90;;;;;;5058508;28;20649;-70
2021/12/20 09:09:11;;;;;;;50.53;8.90;;;5.00;99.90;;;;;;5069952;28;20272;-69
2021/12/20 09:11:40;;;;;;;52.20;8.60;;;5.10;99.90;;;;;;5078369;28;20220;-69
2021/12/20 09:14:07;;;;;;;46.77;9.30;;;5.20;99.90;;;;;;5062150;28;20373;-70
2021/12/20 09:16:34;;;;;;;57.53;9.67;;;5.20;99.90;;;;;;5074647;28;20532;-69
2021/12/20 09:19:02;;;;;;;46.23;8.93;;;5.40;99.90;;;;;;5072755;28;20325;-69
2021/12/20 09:21:29;;;;;;;61.50;10.50;;;5.30;99.90;;;;;;5071273;28;20209;-69
2021/12/20 09:23:56;;;;;;;56.70;9.27;;;5.50;99.90;;;;;;5069968;28;20205;-69
2021/12/20 09:26:24;;;;;;;54.57;10.13;;;5.70;99.90;;;;;;5059693;28;20657;-69
2021/12/20 09:28:52;;;;;;;52.93;10.07;;;5.70;99.90;;;;;;5075012;28;20443;-69
2021/12/20 09:31:19;;;;;;;48.93;8.80;;;5.80;99.90;;;;;;5062741;28;20208;-68
2021/12/20 09:33:46;;;;;;;46.73;9.73;;;5.90;99.90;;;;;;5071215;28;20222;-69
2021/12/20 09:36:13;;;;;;;51.57;8.77;;;6.10;99.90;;;;;;5074167;28;20209;-69
2021/12/20 09:38:40;;;;;;;52.47;9.70;;;6.10;99.90;;;;;;5058476;28;20208;-69
2021/12/20 09:41:28;;;;;;;51.67;9.27;;;6.20;99.90;;;;;;5083689;28;20204;-69
2021/12/20 09:43:58;;;;;;;41.87;7.63;;;6.30;99.90;;;;;;5073328;28;20283;-69
2021/12/20 09:46:28;;;;;;;50.20;9.83;;;6.40;99.90;;;;;;5058686;28;20240;-69
2021/12/20 09:48:57;;;;;;;39.27;8.43;;;6.40;99.90;;;;;;5062248;28;20296;-69
2021/12/20 09:51:25;;;;;;;51.30;9.33;;;6.50;99.90;;;;;;5066554;28;20678;-69
2021/12/20 09:53:54;;;;;;;55.57;9.77;;;6.60;99.90;;;;;;5070639;28;20708;-68
2021/12/20 09:56:24;;;;;;;52.03;9.73;;;6.80;99.90;;;;;;5058507;28;20205;-69
2021/12/20 09:58:53;;;;;;;53.13;10.53;;;6.80;99.90;;;;;;5056934;28;20576;-69
2021/12/20 10:01:22;;;;;;;48.80;9.07;;;7.00;99.90;;;;;;5066264;28;20208;-69
2021/12/20 10:03:50;;;;;;;53.73;9.67;;;7.10;99.90;;;;;;5064754;28;20552;-69
2021/12/20 10:06:18;;;;;;;50.80;8.93;;;7.30;99.90;;;;;;5063948;28;20702;-69
2021/12/20 10:08:50;;;;;;;51.17;9.70;;;7.30;99.90;;;;;;5077019;28;20681;-69
2021/12/20 10:11:23;;;;;;;51.30;9.83;;;7.40;99.90;;;;;;5068665;28;20637;-69
2021/12/20 10:14:01;;;;;;;51.30;10.73;;;7.60;99.90;;;;;;5058871;28;20231;-69
2021/12/20 10:16:29;;;;;;;49.73;9.33;;;7.70;99.90;;;;;;5065749;28;20579;-69
2021/12/20 10:18:56;;;;;;;54.63;9.93;;;7.70;99.90;;;;;;5070970;28;20669;-69
2021/12/20 10:21:34;;;;;;;45.27;8.10;;;7.70;99.90;;;;;;5075441;28;20650;-69
2021/12/20 10:24:01;;;;;;;61.50;10.63;;;7.80;99.90;;;;;;5072072;28;20310;-69
2021/12/20 10:26:28;;;;;;;43.43;8.47;;;7.80;99.90;;;;;;5051340;28;20237;-69
2021/12/20 10:28:55;;;;;;;52.23;10.17;;;7.90;99.90;;;;;;5054363;28;20216;-69
2021/12/20 10:31:24;;;;;;;44.93;8.70;;;8.00;99.90;;;;;;5069042;28;20222;-69
2021/12/20 10:33:54;;;;;;;44.10;8.80;;;8.20;99.90;;;;;;5063477;28;20230;-69
2021/12/20 10:36:21;;;;;;;45.60;8.37;;;8.40;99.90;;;;;;5072941;28;20410;-69
2021/12/20 10:38:56;;;;;;;52.40;9.40;;;8.40;99.90;;;;;;5078875;28;20209;-70
2021/12/20 10:41:33;;;;;;;44.10;7.97;;;8.50;99.90;;;;;;5076791;28;20680;-69
2021/12/20 10:44:03;;;;;;;47.97;9.10;;;8.50;99.90;;;;;;5074659;28;20295;-69
2021/12/20 10:46:33;;;;;;;47.60;8.70;;;8.60;99.90;;;;;;5067666;28;20279;-69
2021/12/20 10:49:05;;;;;;;45.07;8.57;;;8.80;99.90;;;;;;5054446;28;20222;-69
2021/12/20 10:51:34;;;;;;;49.50;8.67;;;8.90;99.90;;;;;;5079031;28;20206;-69
2021/12/20 10:54:07;;;;;;;56.23;10.07;;;9.10;99.90;;;;;;5063537;28;20235;-69
2021/12/20 10:56:37;;;;;;;45.33;8.63;;;9.30;99.90;;;;;;5059111;28;20226;-69
2021/12/20 10:59:10;;;;;;;44.93;8.83;;;9.30;99.90;;;;;;5063648;28;20219;-69
2021/12/20 11:04:36;;;;;;;41.90;8.17;;;9.40;99.90;;;;;;5124406;27;20535;-68
2021/12/20 11:09:55;;;;;;;50.20;9.67;;;9.50;99.90;;;;;;5098184;28;20200;-68
2021/12/20 11:12:23;;;;;;;43.43;7.97;;;9.50;99.90;;;;;;5099645;28;20215;-68
2021/12/20 11:14:52;;;;;;;40.03;7.90;;;9.50;99.90;;;;;;5100246;28;20202;-69
2021/12/20 11:17:21;;;;;;;37.77;7.57;;;9.50;99.90;;;;;;5100713;28;20240;-69
2021/12/20 11:19:50;;;;;;;38.37;7.17;;;9.60;99.90;;;;;;5095223;28;20212;-69
2021/12/20 11:22:20;;;;;;;44.20;8.47;;;9.60;99.90;;;;;;5101635;28;20277;-69
2021/12/20 11:24:51;;;;;;;48.20;8.27;;;9.70;99.90;;;;;;5102263;28;20255;-69
2021/12/20 11:27:20;;;;;;;41.63;8.03;;;9.60;99.90;;;;;;5099546;28;20241;-69
2021/12/20 11:29:49;;;;;;;41.93;7.93;;;9.70;99.90;;;;;;5099697;28;20627;-69
2021/12/20 11:32:17;;;;;;;42.77;8.27;;;9.70;99.90;;;;;;5099942;28;20219;-70
2021/12/20 11:34:45;;;;;;;46.23;8.63;;;9.70;99.90;;;;;;5100479;28;20281;-69
2021/12/20 11:37:15;;;;;;;35.70;7.47;;;9.80;99.90;;;;;;5099078;28;20233;-69
2021/12/20 11:39:43;;;;;;;34.27;6.93;;;10.00;99.90;;;;;;5099374;28;20676;-69
2021/12/20 11:42:12;;;;;;;29.57;5.70;;;10.00;99.90;;;;;;5100534;28;20217;-69
2021/12/20 11:44:40;;;;;;;36.90;6.90;;;9.90;99.90;;;;;;5101944;28;20197;-69
2021/12/20 11:47:17;;;;;;;34.03;7.10;;;10.00;99.90;;;;;;5096085;28;20245;-67
2021/12/20 11:49:44;;;;;;;35.80;6.80;;;10.00;99.90;;;;;;5094653;28;20213;-70
2021/12/20 11:52:18;;;;;;;33.47;7.10;;;10.00;99.90;;;;;;5102097;28;20222;-70
2021/12/20 11:54:48;;;;;;;31.10;6.00;;;10.00;99.90;;;;;;5101389;28;20201;-70
2021/12/20 11:57:36;;;;;;;26.73;5.67;;;10.00;99.90;;;;;;5099489;28;20229;-70
2021/12/20 12:00:07;;;;;;;36.07;6.83;;;10.10;99.90;;;;;;5098328;28;20667;-70
2021/12/20 12:02:42;;;;;;;36.63;7.07;;;10.20;99.90;;;;;;5100328;28;20220;-71
2021/12/20 12:05:12;;;;;;;30.50;6.03;;;10.20;99.90;;;;;;5101429;28;20509;-70
2021/12/20 12:07:41;;;;;;;33.37;6.40;;;10.20;99.90;;;;;;5098850;28;20241;-70
2021/12/20 12:10:11;;;;;;;40.07;7.67;;;10.20;99.90;;;;;;5098402;28;20659;-70
2021/12/20 12:12:41;;;;;;;30.63;6.07;;;10.30;99.90;;;;;;5102041;28;20206;-70
2021/12/20 12:15:12;;;;;;;34.97;6.73;;;10.40;99.90;;;;;;5093670;28;20752;-71
2021/12/20 12:18:10;;;;;;;33.90;6.57;;;10.40;99.90;;;;;;5084483;28;20238;-70
2021/12/20 12:20:39;;;;;;;37.93;7.70;;;10.50;99.90;;;;;;5068284;28;20226;-69
2021/12/20 12:23:13;;;;;;;33.97;7.17;;;10.00;99.90;;;;;;5083873;28;20699;-69
2021/12/20 12:25:44;;;;;;;33.20;6.83;;;10.40;99.90;;;;;;5086112;28;20205;-69
2021/12/20 12:28:13;;;;;;;34.17;6.83;;;10.50;99.90;;;;;;5088243;28;20249;-69
2021/12/20 12:30:43;;;;;;;27.97;5.47;;;10.50;99.90;;;;;;5084766;28;20295;-70
2021/12/20 12:33:38;;;;;;;37.27;6.43;;;10.30;99.90;;;;;;5083946;28;20207;-70
2021/12/20 12:36:29;;;;;;;38.07;7.53;;;10.20;99.90;;;;;;5085472;28;20211;-70
2021/12/20 12:39:00;;;;;;;32.37;6.83;;;10.10;99.90;;;;;;5081884;28;20324;-70
2021/12/20 12:41:29;;;;;;;24.97;4.97;;;10.10;99.90;;;;;;5086717;28;20670;-68
2021/12/20 12:44:02;;;;;;;31.97;5.97;;;10.10;99.90;;;;;;5083528;28;20259;-70
2021/12/20 12:46:44;;;;;;;35.53;7.40;;;10.20;99.90;;;;;;5077846;28;20513;-67
2021/12/20 12:49:33;;;;;;;31.10;6.80;;;10.20;99.90;;;;;;5087087;28;20218;-69
2021/12/20 12:52:02;;;;;;;30.93;6.47;;;10.20;99.90;;;;;;5084060;28;20209;-70
2021/12/20 12:54:42;;;;;;;27.63;5.87;;;10.10;99.90;;;;;;5086983;28;20210;-69
2021/12/20 12:57:31;;;;;;;31.47;6.30;;;9.90;99.90;;;;;;5084322;28;20233;-69
2021/12/20 13:00:27;;;;;;;30.07;6.13;;;9.80;99.90;;;;;;5077203;28;20219;-69
2021/12/20 13:03:00;;;;;;;30.43;5.90;;;9.70;99.90;;;;;;5065695;28;20214;-69
2021/12/20 13:05:28;;;;;;;30.13;6.17;;;9.60;99.90;;;;;;5079036;28;20511;-69